Time;durP1;ratioP1;P1;durP2;ratioP2;P2;SDS_P1;SDS_P2;PMS_P1;PMS_P2;Temp;Humidity;BMP_temperature;BMP_pressure;BME280_temperature;BME280_humidity;BME280_pressure;Samples;Min_cycle;Max_cycle;Signal;HPM_P1;HPM_P2
2022/09/14 00:01:58;;;;;;;1.70;0.93;;;18.10;99.90;;;;;;5050668;28;20284;-77
2022/09/14 00:04:24;;;;;;;2.30;1.43;;;18.10;99.90;;;;;;5041450;28;20170;-75
2022/09/14 00:06:50;;;;;;;1.90;1.00;;;18.20;99.90;;;;;;5050983;28;20565;-76
2022/09/14 00:09:22;;;;;;;2.10;1.03;;;18.20;99.90;;;;;;5050854;28;20188;-76
2022/09/14 00:11:48;;;;;;;1.90;1.00;;;18.30;99.90;;;;;;5050440;28;20482;-76
2022/09/14 00:14:15;;;;;;;3.83;1.30;;;18.20;99.90;;;;;;5027070;28;20433;-76
2022/09/14 00:16:41;;;;;;;2.90;1.37;;;18.30;99.90;;;;;;5042881;28;20444;-76
2022/09/14 00:19:18;;;;;;;2.03;1.20;;;18.30;99.90;;;;;;5050716;28;20460;-77
2022/09/14 00:21:44;;;;;;;7.97;1.60;;;18.20;99.90;;;;;;5050309;28;20474;-76
2022/09/14 00:24:10;;;;;;;8.10;1.33;;;18.20;99.90;;;;;;5044156;28;20436;-76
2022/09/14 00:26:36;;;;;;;2.20;1.00;;;18.20;99.90;;;;;;5057876;28;20229;-76
2022/09/14 00:29:03;;;;;;;2.03;0.90;;;18.20;99.90;;;;;;5050812;28;20468;-76
2022/09/14 00:31:30;;;;;;;2.00;1.00;;;18.10;99.90;;;;;;5032640;28;20217;-76
2022/09/14 00:33:56;;;;;;;3.20;1.10;;;18.10;99.90;;;;;;5050964;28;20420;-76
2022/09/14 00:36:28;;;;;;;2.47;1.20;;;18.00;99.90;;;;;;5050336;28;20416;-77
2022/09/14 00:38:55;;;;;;;1.60;0.83;;;18.00;99.90;;;;;;5033542;28;20648;-76
2022/09/14 00:41:24;;;;;;;2.30;1.10;;;18.10;99.90;;;;;;5050602;28;20423;-76
2022/09/14 00:43:54;;;;;;;2.70;1.47;;;18.00;99.90;;;;;;5051281;28;20482;-76
2022/09/14 00:46:20;;;;;;;3.43;1.43;;;18.10;99.90;;;;;;5051000;28;20421;-76
2022/09/14 00:48:46;;;;;;;3.40;1.40;;;18.10;99.90;;;;;;5051125;28;20426;-76
2022/09/14 00:51:12;;;;;;;2.13;1.00;;;18.10;99.90;;;;;;5050818;28;20198;-76
2022/09/14 00:53:38;;;;;;;1.93;0.93;;;18.10;99.90;;;;;;5043468;28;20937;-76
2022/09/14 00:56:04;;;;;;;1.73;0.80;;;18.10;99.90;;;;;;5051415;28;20428;-76
2022/09/14 00:58:30;;;;;;;4.30;1.27;;;18.10;99.90;;;;;;5047336;28;20189;-76
2022/09/14 01:00:57;;;;;;;4.20;0.93;;;18.10;99.90;;;;;;5054754;28;20528;-76
2022/09/14 01:03:23;;;;;;;1.83;0.93;;;18.10;99.90;;;;;;5036871;28;20824;-76
2022/09/14 01:05:54;;;;;;;1.60;0.70;;;18.10;99.90;;;;;;5036294;28;20444;-76
2022/09/14 01:08:47;;;;;;;1.70;1.00;;;18.10;99.90;;;;;;5054762;28;20521;-77
2022/09/14 01:11:20;;;;;;;3.00;1.33;;;18.10;99.90;;;;;;5041894;28;20416;-76
2022/09/14 01:14:01;;;;;;;7.00;1.37;;;18.10;99.90;;;;;;5054016;28;20412;-80
2022/09/14 01:16:43;;;;;;;15.10;1.43;;;18.20;99.90;;;;;;5054510;28;20444;-78
2022/09/14 01:19:41;;;;;;;1.97;1.03;;;17.90;99.90;;;;;;5054966;28;20471;-78
2022/09/14 01:22:15;;;;;;;5.30;1.90;;;17.60;99.90;;;;;;5055028;28;20460;-78
2022/09/14 01:24:58;;;;;;;7.17;1.43;;;17.40;99.90;;;;;;5055204;28;20420;-78
2022/09/14 01:27:30;;;;;;;12.40;1.90;;;17.30;99.90;;;;;;5035245;28;20440;-77
2022/09/14 01:30:10;;;;;;;4.67;1.80;;;17.20;99.90;;;;;;5031575;28;20473;-78
2022/09/14 01:33:01;;;;;;;7.23;2.40;;;17.20;99.90;;;;;;5054803;28;20788;-76
2022/09/14 01:35:49;;;;;;;8.00;2.20;;;17.20;99.90;;;;;;5037259;28;20447;-78
2022/09/14 01:38:33;;;;;;;6.20;2.40;;;17.20;99.90;;;;;;5055029;28;20452;-77
2022/09/14 01:41:02;;;;;;;10.23;2.47;;;17.20;99.90;;;;;;5054351;28;20479;-78
2022/09/14 01:43:46;;;;;;;3.40;2.00;;;17.10;99.90;;;;;;5054740;28;20430;-78
2022/09/14 01:46:24;;;;;;;8.93;1.77;;;17.20;99.90;;;;;;5054458;28;20911;-78
2022/09/14 01:49:01;;;;;;;3.80;1.40;;;17.10;99.90;;;;;;5054472;28;20412;-78
2022/09/14 01:51:53;;;;;;;3.67;1.97;;;17.10;99.90;;;;;;5053859;28;20434;-78
2022/09/14 01:54:36;;;;;;;12.10;2.00;;;17.10;99.90;;;;;;5008132;28;20499;-78
2022/09/14 01:57:06;;;;;;;3.57;1.20;;;17.10;99.90;;;;;;5063394;28;20438;-78
2022/09/14 01:59:40;;;;;;;5.23;1.73;;;17.10;99.90;;;;;;5056845;28;20479;-78
2022/09/14 02:02:11;;;;;;;2.53;1.07;;;17.10;99.90;;;;;;5053891;28;21285;-78
2022/09/14 02:04:49;;;;;;;5.80;1.47;;;17.10;99.90;;;;;;5054704;28;20455;-75
2022/09/14 02:07:16;;;;;;;2.93;1.50;;;17.10;99.90;;;;;;5036256;28;20463;-78
2022/09/14 02:09:43;;;;;;;3.40;1.07;;;17.10;99.90;;;;;;5053918;28;20427;-78
2022/09/14 02:12:08;;;;;;;5.90;1.53;;;17.20;99.90;;;;;;5039835;28;20429;-78
2022/09/14 02:14:34;;;;;;;2.60;1.50;;;17.10;99.90;;;;;;5054230;28;20474;-79
2022/09/14 02:17:01;;;;;;;4.40;1.47;;;17.20;99.90;;;;;;5035981;28;20263;-78
2022/09/14 02:19:35;;;;;;;2.50;1.50;;;17.20;99.90;;;;;;5045407;28;20871;-79
2022/09/14 02:22:01;;;;;;;2.57;1.23;;;17.20;99.90;;;;;;5049797;28;20502;-78
2022/09/14 02:24:27;;;;;;;2.60;1.53;;;17.20;99.90;;;;;;5026329;28;20512;-75
2022/09/14 02:26:55;;;;;;;6.77;1.40;;;17.20;99.90;;;;;;5061628;28;20198;-78
2022/09/14 02:29:21;;;;;;;2.97;1.70;;;17.20;99.90;;;;;;5035265;28;20436;-79
2022/09/14 02:31:57;;;;;;;2.93;1.50;;;17.20;99.90;;;;;;5051156;28;20516;-78
2022/09/14 02:34:29;;;;;;;3.50;1.50;;;17.20;99.90;;;;;;5044488;28;20189;-78
2022/09/14 02:37:12;;;;;;;3.80;2.10;;;17.20;99.90;;;;;;5047910;28;20544;-78
2022/09/14 02:39:56;;;;;;;3.27;2.00;;;17.20;99.90;;;;;;5047485;28;20493;-77
2022/09/14 02:42:46;;;;;;;4.70;1.40;;;17.30;99.90;;;;;;5053403;28;20416;-78
2022/09/14 02:45:39;;;;;;;4.37;1.90;;;17.20;99.90;;;;;;5053150;28;20424;-78
2022/09/14 02:48:08;;;;;;;2.47;1.63;;;17.20;99.90;;;;;;5053683;28;20449;-78
2022/09/14 02:51:05;;;;;;;3.37;1.80;;;17.20;99.90;;;;;;5035260;28;20458;-79
2022/09/14 02:53:36;;;;;;;3.47;1.73;;;17.10;99.90;;;;;;5052907;28;20448;-77
2022/09/14 02:56:06;;;;;;;5.97;2.10;;;17.20;99.90;;;;;;5035288;28;20428;-76
2022/09/14 02:58:38;;;;;;;4.37;2.10;;;17.10;99.90;;;;;;5053786;28;20424;-79
2022/09/14 03:01:05;;;;;;;9.63;1.87;;;17.10;99.90;;;;;;5052887;28;20467;-79
2022/09/14 03:03:31;;;;;;;3.80;1.90;;;17.20;99.90;;;;;;5053203;28;20499;-78
2022/09/14 03:05:56;;;;;;;3.23;1.70;;;17.10;99.90;;;;;;5033186;28;20869;-78
2022/09/14 03:08:24;;;;;;;7.87;3.00;;;17.20;99.90;;;;;;5053013;28;20208;-76
2022/09/14 03:10:50;;;;;;;4.33;1.80;;;17.20;99.90;;;;;;5052463;28;20276;-78
2022/09/14 03:13:15;;;;;;;4.17;2.10;;;17.20;99.90;;;;;;5052674;28;20432;-78
2022/09/14 03:15:41;;;;;;;3.83;2.10;;;17.10;99.90;;;;;;5039309;28;20436;-77
2022/09/14 03:18:07;;;;;;;13.37;2.00;;;17.10;99.90;;;;;;5052489;28;20276;-78
2022/09/14 03:20:33;;;;;;;5.10;2.00;;;17.00;99.90;;;;;;5018291;28;20206;-78
2022/09/14 03:23:00;;;;;;;4.30;2.00;;;17.10;99.90;;;;;;5034746;28;20232;-79
2022/09/14 03:25:26;;;;;;;2.87;1.67;;;17.10;99.90;;;;;;5052698;28;20549;-77
2022/09/14 03:27:58;;;;;;;4.83;2.70;;;17.10;99.90;;;;;;5052724;28;20512;-78
2022/09/14 03:30:24;;;;;;;5.77;2.07;;;17.10;99.90;;;;;;5034729;28;20428;-78
2022/09/14 03:32:50;;;;;;;4.33;2.60;;;17.10;99.90;;;;;;5052272;28;20767;-78
2022/09/14 03:35:16;;;;;;;4.07;1.77;;;17.10;99.90;;;;;;5052245;28;20439;-78
2022/09/14 03:37:43;;;;;;;3.03;1.70;;;17.10;99.90;;;;;;5052256;28;20287;-76
2022/09/14 03:40:10;;;;;;;3.90;1.80;;;17.10;99.90;;;;;;5034113;28;20479;-78
2022/09/14 03:42:43;;;;;;;3.70;1.83;;;17.10;99.90;;;;;;5052109;28;20420;-80
2022/09/14 03:45:10;;;;;;;9.07;2.10;;;17.10;99.90;;;;;;5052281;28;20792;-78
2022/09/14 03:47:36;;;;;;;6.67;1.77;;;17.10;99.90;;;;;;5052467;28;20450;-77
2022/09/14 03:50:02;;;;;;;3.53;2.00;;;17.10;99.90;;;;;;5034533;28;20428;-77
2022/09/14 03:52:27;;;;;;;6.70;2.10;;;17.10;99.90;;;;;;5033762;28;20216;-78
2022/09/14 03:54:53;;;;;;;3.37;2.20;;;17.10;99.90;;;;;;5046893;28;20190;-78
2022/09/14 03:57:19;;;;;;;3.10;2.30;;;17.10;99.90;;;;;;5054984;28;20646;-78
2022/09/14 03:59:45;;;;;;;4.10;2.17;;;17.10;99.90;;;;;;5021866;28;20217;-78
2022/09/14 04:02:10;;;;;;;4.00;2.47;;;17.10;99.90;;;;;;5051518;28;20509;-78
2022/09/14 04:04:36;;;;;;;4.83;2.03;;;17.10;99.90;;;;;;5051741;28;20186;-78
2022/09/14 04:07:02;;;;;;;4.40;2.30;;;17.10;99.90;;;;;;5051844;28;20210;-78
2022/09/14 04:09:27;;;;;;;2.30;1.47;;;17.10;99.90;;;;;;5046381;28;20616;-78
2022/09/14 04:11:53;;;;;;;4.97;2.20;;;17.10;99.90;;;;;;5043512;28;20197;-76
2022/09/14 04:14:19;;;;;;;4.00;1.87;;;17.10;99.90;;;;;;5038364;28;20267;-78
2022/09/14 04:16:44;;;;;;;5.07;2.30;;;17.10;99.90;;;;;;5033924;28;20597;-77
2022/09/14 04:19:11;;;;;;;5.73;2.50;;;17.10;99.90;;;;;;5033798;28;20218;-78
2022/09/14 04:21:36;;;;;;;3.50;2.03;;;17.10;99.90;;;;;;5051549;28;20193;-77
2022/09/14 04:24:02;;;;;;;3.10;1.57;;;17.10;99.90;;;;;;5051843;28;20427;-78
2022/09/14 04:26:29;;;;;;;3.57;2.17;;;17.10;99.90;;;;;;5048914;28;20255;-78
2022/09/14 04:28:55;;;;;;;3.90;2.40;;;17.10;99.90;;;;;;5055402;28;20186;-77
2022/09/14 04:31:22;;;;;;;3.60;2.17;;;17.20;99.90;;;;;;5054562;28;20432;-77
2022/09/14 04:33:49;;;;;;;3.80;2.47;;;17.20;99.90;;;;;;5067248;28;20440;-80
2022/09/14 04:36:18;;;;;;;5.00;2.47;;;17.20;99.90;;;;;;5060330;28;20456;-81
2022/09/14 04:38:43;;;;;;;10.53;2.70;;;17.20;99.90;;;;;;5077940;28;20409;-80
2022/09/14 04:41:15;;;;;;;4.30;2.70;;;17.20;99.90;;;;;;5078154;28;20480;-80
2022/09/14 04:43:42;;;;;;;5.20;3.00;;;17.20;99.90;;;;;;5078714;28;20208;-80
2022/09/14 04:46:11;;;;;;;4.47;2.40;;;17.20;99.90;;;;;;5078426;28;20408;-79
2022/09/14 04:48:37;;;;;;;3.00;1.97;;;17.20;99.90;;;;;;5054869;28;20432;-77
2022/09/14 04:51:05;;;;;;;5.30;2.87;;;17.20;99.90;;;;;;5052072;28;20434;-75
2022/09/14 04:53:34;;;;;;;4.30;2.53;;;17.20;99.90;;;;;;5045273;28;20252;-78
2022/09/14 04:56:00;;;;;;;5.30;3.33;;;17.20;99.90;;;;;;5045985;28;20793;-78
2022/09/14 04:58:27;;;;;;;4.63;2.53;;;17.30;99.90;;;;;;5051682;28;20447;-77
2022/09/14 05:00:54;;;;;;;5.33;2.87;;;17.30;99.90;;;;;;5033427;28;20844;-76
2022/09/14 05:03:20;;;;;;;5.30;2.40;;;17.30;99.90;;;;;;5051304;28;20412;-77
2022/09/14 05:05:46;;;;;;;4.83;2.70;;;17.40;99.90;;;;;;5049001;28;20564;-76
2022/09/14 05:08:12;;;;;;;4.87;3.07;;;17.40;99.90;;;;;;5051251;28;20927;-78
2022/09/14 05:10:38;;;;;;;6.20;3.40;;;17.40;99.90;;;;;;5033624;28;20277;-78
2022/09/14 05:13:03;;;;;;;5.30;2.73;;;17.40;99.90;;;;;;5050950;28;20195;-77
2022/09/14 05:15:29;;;;;;;4.10;2.53;;;17.40;99.90;;;;;;5049892;28;20197;-77
2022/09/14 05:17:54;;;;;;;6.07;2.60;;;17.40;99.90;;;;;;5040030;28;20214;-77
2022/09/14 05:20:20;;;;;;;4.00;2.50;;;17.50;99.90;;;;;;5033779;28;20213;-78
2022/09/14 05:22:49;;;;;;;5.97;2.40;;;17.50;99.90;;;;;;5050884;28;20186;-76
2022/09/14 05:25:15;;;;;;;4.93;3.27;;;17.50;99.90;;;;;;5051336;28;20315;-77
2022/09/14 05:27:41;;;;;;;3.90;2.13;;;17.50;99.90;;;;;;5051004;28;20535;-77
2022/09/14 05:30:07;;;;;;;6.90;2.40;;;17.50;99.90;;;;;;5050983;28;20186;-75
2022/09/14 05:32:32;;;;;;;7.47;4.00;;;17.60;99.90;;;;;;5051253;28;20192;-77
2022/09/14 05:34:58;;;;;;;5.30;2.60;;;17.60;99.90;;;;;;5050726;28;20475;-77
2022/09/14 05:37:24;;;;;;;6.93;2.83;;;17.60;99.90;;;;;;5051268;28;20198;-77
2022/09/14 05:39:49;;;;;;;5.37;3.20;;;17.70;99.90;;;;;;5051695;28;20288;-77
2022/09/14 05:42:15;;;;;;;3.83;2.40;;;17.70;99.90;;;;;;5054333;28;20189;-77
2022/09/14 05:44:40;;;;;;;5.10;3.17;;;17.70;99.90;;;;;;5055681;28;20194;-77
2022/09/14 05:47:06;;;;;;;10.13;2.87;;;17.70;99.90;;;;;;5056374;28;20225;-75
2022/09/14 05:49:31;;;;;;;6.30;3.50;;;17.70;99.90;;;;;;5054668;28;20231;-79
2022/09/14 05:51:57;;;;;;;5.10;3.37;;;17.70;99.90;;;;;;5054335;28;20205;-76
2022/09/14 05:54:22;;;;;;;3.43;2.20;;;17.70;99.90;;;;;;5052214;28;20235;-77
2022/09/14 05:56:48;;;;;;;7.93;2.93;;;17.70;99.90;;;;;;5050230;28;20433;-77
2022/09/14 05:59:14;;;;;;;8.30;2.90;;;17.80;99.90;;;;;;5059068;28;20209;-78
2022/09/14 06:01:40;;;;;;;5.60;3.40;;;17.80;99.90;;;;;;5053625;28;20602;-76
2022/09/14 06:04:05;;;;;;;6.07;3.17;;;17.80;99.90;;;;;;5054189;28;20190;-77
2022/09/14 06:06:33;;;;;;;5.30;2.70;;;17.80;99.90;;;;;;5054072;28;20205;-77
2022/09/14 06:08:59;;;;;;;3.33;2.23;;;17.80;99.90;;;;;;5043741;28;20310;-78
2022/09/14 06:11:28;;;;;;;4.10;2.37;;;17.90;99.90;;;;;;5053769;28;20580;-78
2022/09/14 06:13:55;;;;;;;5.00;2.63;;;17.90;99.90;;;;;;5053636;28;20443;-77
2022/09/14 06:16:22;;;;;;;4.00;2.37;;;17.90;99.90;;;;;;5044210;28;20423;-77
2022/09/14 06:18:48;;;;;;;3.93;2.37;;;18.00;99.90;;;;;;5051109;28;20434;-77
2022/09/14 06:21:16;;;;;;;5.57;2.80;;;18.00;99.90;;;;;;5047109;28;20472;-77
2022/09/14 06:23:42;;;;;;;6.40;2.47;;;18.10;99.90;;;;;;5051712;28;20511;-77
2022/09/14 06:26:09;;;;;;;3.90;2.30;;;18.10;99.90;;;;;;5056597;28;20404;-77
2022/09/14 06:28:34;;;;;;;6.00;2.93;;;18.20;99.90;;;;;;5053555;28;20420;-79
2022/09/14 06:31:03;;;;;;;5.23;2.37;;;18.30;99.90;;;;;;5053388;28;20428;-75
2022/09/14 06:33:29;;;;;;;3.70;2.03;;;18.30;99.90;;;;;;5053025;28;20259;-78
2022/09/14 06:35:57;;;;;;;4.70;2.70;;;18.30;99.90;;;;;;5053184;28;20973;-78
2022/09/14 06:38:23;;;;;;;4.63;2.70;;;18.40;99.90;;;;;;5052809;28;20452;-78
2022/09/14 06:40:58;;;;;;;2.70;1.47;;;18.40;99.90;;;;;;5053013;28;20478;-78
2022/09/14 06:43:25;;;;;;;5.23;2.20;;;18.40;99.90;;;;;;5053405;28;20428;-78
2022/09/14 06:45:59;;;;;;;3.70;2.07;;;18.50;99.90;;;;;;5056366;28;20903;-78
2022/09/14 06:48:26;;;;;;;3.80;1.60;;;18.50;99.90;;;;;;5034558;28;20927;-78
2022/09/14 06:50:52;;;;;;;2.67;1.80;;;18.50;99.90;;;;;;5047764;28;20899;-76
2022/09/14 06:53:17;;;;;;;5.70;2.20;;;18.60;99.90;;;;;;5036098;28;20501;-78
2022/09/14 06:55:46;;;;;;;1.97;1.40;;;18.60;99.90;;;;;;5055491;28;20213;-77
2022/09/14 06:58:12;;;;;;;4.77;2.63;;;18.60;99.90;;;;;;5068996;28;20205;-78
2022/09/14 07:00:38;;;;;;;3.10;1.77;;;18.70;99.90;;;;;;5058465;28;20475;-77
2022/09/14 07:03:03;;;;;;;4.80;2.70;;;18.80;99.90;;;;;;5039929;28;20188;-78
2022/09/14 07:05:29;;;;;;;3.80;2.03;;;18.80;99.90;;;;;;5032737;28;20187;-77
2022/09/14 07:07:56;;;;;;;6.10;2.97;;;18.90;99.90;;;;;;5057054;28;20263;-78
2022/09/14 07:10:22;;;;;;;4.17;1.97;;;18.90;99.90;;;;;;5038467;28;20873;-78
2022/09/14 07:12:48;;;;;;;3.53;2.17;;;19.00;99.90;;;;;;5036865;28;21005;-76
2022/09/14 07:15:14;;;;;;;4.77;2.10;;;19.20;99.90;;;;;;5025730;28;20464;-78
2022/09/14 07:17:44;;;;;;;3.40;1.73;;;19.20;99.90;;;;;;5053362;28;20447;-79
2022/09/14 07:20:10;;;;;;;3.23;1.90;;;19.20;99.90;;;;;;5053717;28;20368;-79
2022/09/14 07:22:35;;;;;;;3.83;2.13;;;19.30;99.90;;;;;;5030964;28;20984;-78
2022/09/14 07:25:01;;;;;;;3.17;2.03;;;19.20;99.90;;;;;;5051858;28;20185;-77
2022/09/14 07:27:27;;;;;;;2.60;1.90;;;19.30;99.90;;;;;;5028229;28;20202;-78
2022/09/14 07:29:52;;;;;;;3.00;1.67;;;19.40;99.90;;;;;;5046724;28;20578;-79
2022/09/14 07:32:18;;;;;;;4.33;2.00;;;19.60;99.90;;;;;;5026210;28;20182;-78
2022/09/14 07:34:44;;;;;;;2.97;1.73;;;19.90;99.90;;;;;;5052977;28;20684;-78
2022/09/14 07:37:09;;;;;;;3.60;1.77;;;20.20;99.90;;;;;;5048529;28;20208;-78
2022/09/14 07:39:35;;;;;;;2.87;1.70;;;20.60;99.90;;;;;;5051876;28;20206;-78
2022/09/14 07:42:01;;;;;;;5.10;1.40;;;20.80;99.90;;;;;;5052073;28;20186;-78
2022/09/14 07:44:27;;;;;;;4.37;1.67;;;21.20;99.90;;;;;;5058390;28;20213;-78
2022/09/14 07:46:52;;;;;;;6.90;1.77;;;21.40;99.90;;;;;;5051745;28;20459;-80
2022/09/14 07:49:18;;;;;;;3.20;1.50;;;21.70;99.90;;;;;;5052472;28;20669;-78
2022/09/14 07:51:44;;;;;;;3.57;1.80;;;22.00;99.90;;;;;;5051491;28;20722;-78
2022/09/14 07:54:12;;;;;;;4.37;1.60;;;22.00;99.90;;;;;;5051510;28;20609;-77
2022/09/14 07:56:38;;;;;;;5.90;1.70;;;21.80;99.90;;;;;;5042072;28;20443;-78
2022/09/14 07:59:04;;;;;;;2.73;1.60;;;21.90;99.90;;;;;;5033401;28;20427;-78
2022/09/14 08:01:30;;;;;;;9.50;1.87;;;22.30;99.90;;;;;;5051987;28;20420;-78
2022/09/14 08:04:01;;;;;;;8.37;1.70;;;22.80;99.90;;;;;;5031722;28;20488;-77
2022/09/14 08:06:27;;;;;;;3.30;1.50;;;22.90;99.90;;;;;;5051628;28;20412;-78
2022/09/14 08:08:54;;;;;;;2.50;1.47;;;23.00;99.90;;;;;;5051074;28;20419;-77
2022/09/14 08:11:20;;;;;;;6.90;1.50;;;22.80;99.90;;;;;;5051367;28;20434;-78
2022/09/14 08:13:50;;;;;;;2.77;1.20;;;22.60;99.90;;;;;;5047972;28;20421;-77
2022/09/14 08:16:18;;;;;;;4.60;2.03;;;22.30;99.90;;;;;;5050745;28;20223;-77
2022/09/14 08:18:43;;;;;;;3.00;1.30;;;22.30;99.90;;;;;;5051062;28;20932;-78
2022/09/14 08:21:14;;;;;;;3.07;1.23;;;22.50;99.90;;;;;;5051914;28;20558;-76
2022/09/14 08:23:41;;;;;;;2.60;1.47;;;22.60;99.90;;;;;;5050951;28;20416;-78
2022/09/14 08:26:17;;;;;;;3.10;1.10;;;22.60;99.90;;;;;;5039862;28;20428;-76
2022/09/14 08:28:43;;;;;;;5.60;1.20;;;22.60;99.90;;;;;;5046139;28;20419;-77
2022/09/14 08:31:11;;;;;;;3.83;1.73;;;22.50;99.90;;;;;;5044939;28;20413;-77
2022/09/14 08:33:39;;;;;;;8.33;1.57;;;22.40;99.90;;;;;;5032065;28;20455;-77
2022/09/14 08:36:07;;;;;;;2.10;1.20;;;22.10;99.90;;;;;;5028923;28;20428;-77
2022/09/14 08:38:34;;;;;;;6.03;1.50;;;21.80;99.90;;;;;;5040054;28;20931;-78
2022/09/14 08:41:08;;;;;;;7.40;1.60;;;21.60;99.90;;;;;;5046868;28;20553;-78
2022/09/14 08:43:34;;;;;;;4.73;1.97;;;21.50;99.90;;;;;;5021941;28;20432;-78
2022/09/14 08:46:10;;;;;;;2.33;1.47;;;21.40;99.90;;;;;;5032943;28;20424;-78
2022/09/14 08:48:47;;;;;;;8.40;1.50;;;21.40;99.90;;;;;;5051051;28;20438;-77
2022/09/14 08:51:14;;;;;;;6.73;2.00;;;21.50;99.90;;;;;;5049273;28;20464;-76
2022/09/14 08:53:41;;;;;;;2.40;1.30;;;21.80;99.90;;;;;;5046944;28;20436;-78
2022/09/14 08:56:14;;;;;;;7.67;1.83;;;22.10;99.90;;;;;;5034722;28;20950;-76
2022/09/14 08:59:07;;;;;;;2.67;1.13;;;22.70;99.90;;;;;;5060259;28;20428;-78
2022/09/14 09:01:45;;;;;;;1.80;1.10;;;23.40;99.90;;;;;;5038345;28;20430;-77
2022/09/14 09:04:45;;;;;;;1.90;0.87;;;23.90;99.90;;;;;;5032796;28;20430;-78
2022/09/14 09:07:47;;;;;;;6.60;1.57;;;24.30;99.90;;;;;;5048005;28;20973;-78
2022/09/14 09:10:13;;;;;;;2.80;1.40;;;24.30;99.90;;;;;;5050645;28;20407;-78
2022/09/14 09:12:49;;;;;;;2.73;1.33;;;24.60;99.90;;;;;;5050720;28;20415;-78
2022/09/14 09:15:43;;;;;;;2.50;1.30;;;24.90;99.90;;;;;;5050683;28;20416;-79
2022/09/14 09:18:15;;;;;;;2.40;1.60;;;25.00;99.90;;;;;;5054320;28;20220;-78
2022/09/14 09:20:53;;;;;;;3.00;1.63;;;25.00;99.90;;;;;;5050367;28;20222;-77
2022/09/14 09:23:20;;;;;;;1.77;0.87;;;25.20;99.90;;;;;;5048877;28;20180;-78
2022/09/14 09:26:03;;;;;;;2.67;1.20;;;25.00;99.90;;;;;;5054599;28;20514;-78
2022/09/14 09:28:30;;;;;;;4.27;1.27;;;24.60;99.90;;;;;;5054723;28;20516;-78
2022/09/14 09:31:03;;;;;;;2.00;1.10;;;24.60;99.90;;;;;;5054160;28;20189;-79
2022/09/14 09:33:30;;;;;;;2.40;1.10;;;24.80;99.90;;;;;;5054882;28;20838;-77
2022/09/14 09:35:56;;;;;;;2.00;1.00;;;24.80;99.90;;;;;;5054438;28;20446;-77
2022/09/14 09:38:25;;;;;;;3.03;1.83;;;24.40;99.90;;;;;;5054659;28;20458;-77
2022/09/14 09:41:09;;;;;;;3.20;1.07;;;24.20;99.90;;;;;;5054211;28;20478;-77
2022/09/14 09:43:55;;;;;;;1.80;1.20;;;24.30;99.90;;;;;;5041168;28;20430;-77
2022/09/14 09:46:21;;;;;;;3.53;1.30;;;24.40;99.90;;;;;;5054131;28;20407;-78
2022/09/14 09:48:47;;;;;;;2.60;1.27;;;24.40;99.90;;;;;;5056547;28;20411;-77
2022/09/14 09:51:15;;;;;;;2.40;1.40;;;24.40;99.90;;;;;;5059455;28;20442;-77
2022/09/14 09:53:55;;;;;;;2.77;1.43;;;24.40;99.90;;;;;;5054852;28;20185;-77
2022/09/14 09:56:48;;;;;;;3.17;1.60;;;24.40;99.90;;;;;;5057713;28;20454;-77
2022/09/14 09:59:35;;;;;;;2.43;1.33;;;24.60;99.90;;;;;;5059408;28;20420;-77
2022/09/14 10:02:33;;;;;;;2.77;1.33;;;24.70;99.90;;;;;;5053914;28;20980;-77
2022/09/14 10:05:09;;;;;;;13.80;2.03;;;24.80;99.90;;;;;;5001615;28;20531;-77
2022/09/14 10:08:00;;;;;;;2.27;1.13;;;24.50;99.90;;;;;;5049989;28;20502;-74
2022/09/14 10:10:34;;;;;;;2.43;1.30;;;24.20;99.90;;;;;;5037232;28;20566;-76
2022/09/14 10:13:02;;;;;;;3.90;1.23;;;24.30;99.90;;;;;;5035488;28;20510;-76
2022/09/14 10:15:38;;;;;;;1.97;1.00;;;24.30;99.90;;;;;;5053818;28;20427;-77
2022/09/14 10:18:13;;;;;;;2.93;1.30;;;24.20;99.90;;;;;;5044392;28;20450;-79
2022/09/14 10:21:01;;;;;;;4.50;1.40;;;24.00;99.90;;;;;;5053628;28;20962;-76
2022/09/14 10:23:30;;;;;;;2.93;1.37;;;23.90;99.90;;;;;;5053322;28;20423;-77
2022/09/14 10:26:11;;;;;;;3.10;1.60;;;23.90;99.90;;;;;;5053503;28;20424;-76
2022/09/14 10:28:39;;;;;;;4.67;1.73;;;23.90;99.90;;;;;;5053336;28;20914;-77
2022/09/14 10:31:13;;;;;;;3.83;1.37;;;24.00;99.90;;;;;;5053268;28;20870;-77
2022/09/14 10:33:39;;;;;;;3.13;1.37;;;24.00;99.90;;;;;;5053814;28;20428;-77
2022/09/14 10:36:30;;;;;;;2.03;1.20;;;24.10;99.90;;;;;;5053477;28;20911;-77
2022/09/14 10:39:11;;;;;;;4.33;1.80;;;24.20;99.90;;;;;;5044849;28;20187;-77
2022/09/14 10:41:44;;;;;;;4.53;1.40;;;24.20;99.90;;;;;;5053238;28;20439;-77
2022/09/14 10:44:28;;;;;;;3.43;1.17;;;24.40;99.90;;;;;;5053360;28;20906;-77
2022/09/14 10:47:02;;;;;;;2.80;1.10;;;24.30;99.90;;;;;;5041055;28;20609;-77
2022/09/14 10:49:36;;;;;;;4.03;1.73;;;24.30;99.90;;;;;;5052738;28;21013;-77
2022/09/14 10:52:24;;;;;;;2.27;1.13;;;24.40;99.90;;;;;;5052837;28;20450;-77
2022/09/14 10:54:55;;;;;;;3.97;1.20;;;24.50;99.90;;;;;;5052852;28;20427;-77
2022/09/14 10:57:27;;;;;;;2.13;1.00;;;24.60;99.90;;;;;;5064836;28;20474;-78
2022/09/14 11:00:11;;;;;;;3.03;1.30;;;24.70;99.90;;;;;;5034516;28;20601;-77
2022/09/14 11:02:59;;;;;;;4.00;1.57;;;24.70;99.90;;;;;;5052979;28;20427;-74
2022/09/14 11:05:39;;;;;;;3.00;1.40;;;24.90;99.90;;;;;;5029140;28;20560;-77
2022/09/14 11:08:31;;;;;;;4.10;0.90;;;25.10;99.90;;;;;;5046224;28;20432;-76
2022/09/14 11:11:33;;;;;;;2.00;1.00;;;25.30;99.90;;;;;;5022800;28;20475;-77
2022/09/14 11:14:14;;;;;;;2.00;1.03;;;25.50;99.90;;;;;;5043022;28;20794;-76
2022/09/14 11:16:49;;;;;;;3.40;1.53;;;25.50;99.90;;;;;;5042531;28;20508;-76
2022/09/14 11:19:41;;;;;;;2.00;1.00;;;25.70;99.90;;;;;;5027855;28;20799;-77
2022/09/14 11:22:48;;;;;;;6.60;1.33;;;25.60;99.90;;;;;;5025607;28;20482;-79
2022/09/14 11:25:58;;;;;;;2.53;1.10;;;25.50;99.60;;;;;;5007959;28;20439;-76
2022/09/14 11:28:36;;;;;;;3.63;1.00;;;25.40;99.90;;;;;;5052802;28;20439;-78
2022/09/14 11:31:15;;;;;;;10.07;1.20;;;25.30;99.70;;;;;;5052195;28;20431;-76
2022/09/14 11:34:08;;;;;;;1.90;0.80;;;25.30;99.90;;;;;;5052535;28;20448;-76
2022/09/14 11:36:43;;;;;;;2.63;1.03;;;25.30;99.80;;;;;;5052517;28;20450;-78
2022/09/14 11:39:19;;;;;;;1.80;0.93;;;25.30;99.70;;;;;;5051592;28;20966;-79
2022/09/14 11:41:48;;;;;;;2.93;1.00;;;25.10;99.60;;;;;;5036298;28;20443;-79
2022/09/14 11:44:32;;;;;;;2.20;1.17;;;25.20;99.90;;;;;;5034661;28;20954;-79
2022/09/14 11:47:01;;;;;;;3.00;1.30;;;25.30;99.90;;;;;;5039512;28;20463;-79
2022/09/14 11:49:48;;;;;;;5.83;1.43;;;25.20;99.50;;;;;;5034124;28;20450;-78
2022/09/14 11:52:19;;;;;;;7.33;1.40;;;25.00;99.50;;;;;;5052034;28;20447;-79
2022/09/14 11:54:47;;;;;;;4.47;1.27;;;25.00;99.30;;;;;;5034013;28;20435;-76
2022/09/14 11:57:17;;;;;;;1.67;0.97;;;24.90;99.50;;;;;;5052324;28;20447;-76
2022/09/14 11:59:49;;;;;;;1.80;0.97;;;24.90;99.90;;;;;;5033766;28;20659;-76
2022/09/14 12:02:25;;;;;;;3.53;0.97;;;24.70;99.90;;;;;;5051601;28;20506;-75
2022/09/14 12:05:09;;;;;;;7.80;1.17;;;24.60;99.90;;;;;;5040942;28;20458;-77
2022/09/14 12:07:50;;;;;;;3.60;1.50;;;24.50;99.90;;;;;;5051637;28;20441;-76
2022/09/14 12:10:20;;;;;;;4.07;1.30;;;24.40;99.90;;;;;;5043252;28;20419;-76
2022/09/14 12:13:12;;;;;;;2.07;0.93;;;24.40;99.90;;;;;;5045136;28;20415;-77
2022/09/14 12:15:39;;;;;;;4.37;1.73;;;24.10;99.90;;;;;;5039774;28;20439;-76
2022/09/14 12:18:05;;;;;;;3.73;1.33;;;23.80;99.90;;;;;;5039687;28;20443;-76
2022/09/14 12:20:39;;;;;;;3.27;2.07;;;23.60;99.90;;;;;;5047243;28;20475;-77
2022/09/14 12:23:14;;;;;;;3.27;1.33;;;23.30;99.90;;;;;;5050091;28;20188;-76
2022/09/14 12:26:04;;;;;;;2.30;1.00;;;23.00;99.90;;;;;;5050708;28;20474;-76
2022/09/14 12:28:38;;;;;;;2.20;1.10;;;22.70;99.90;;;;;;5054968;28;20429;-76
2022/09/14 12:31:04;;;;;;;4.57;1.60;;;22.50;99.90;;;;;;5050394;28;20876;-76
2022/09/14 12:33:32;;;;;;;2.23;1.20;;;22.40;99.90;;;;;;5051449;28;20423;-76
2022/09/14 12:36:30;;;;;;;5.00;1.90;;;22.30;99.90;;;;;;5050581;28;20260;-76
2022/09/14 12:38:55;;;;;;;3.00;1.33;;;22.00;99.90;;;;;;5052234;28;20503;-76
2022/09/14 12:41:21;;;;;;;2.10;1.07;;;21.70;99.90;;;;;;5050668;28;21243;-74
2022/09/14 12:43:49;;;;;;;2.70;1.50;;;21.40;99.90;;;;;;5051206;28;20182;-76
2022/09/14 12:46:21;;;;;;;4.03;2.03;;;21.10;99.90;;;;;;5036760;28;20170;-78
2022/09/14 12:48:47;;;;;;;2.37;1.27;;;20.90;99.90;;;;;;5044575;28;20924;-76
2022/09/14 12:54:24;;;;;;;4.00;1.10;;;20.70;99.90;;;;;;5055287;28;20197;-76
2022/09/14 12:57:09;;;;;;;12.37;2.47;;;20.60;99.90;;;;;;5058008;28;20469;-77
2022/09/14 12:59:56;;;;;;;5.20;2.30;;;20.40;99.90;;;;;;5057141;28;20544;-78
2022/09/14 13:02:43;;;;;;;1.73;1.10;;;20.30;99.90;;;;;;5036569;28;20842;-77
2022/09/14 13:05:27;;;;;;;3.60;1.63;;;20.20;99.90;;;;;;5054796;28;20812;-78
2022/09/14 13:07:53;;;;;;;3.63;1.73;;;20.00;99.90;;;;;;5036662;28;20873;-76
2022/09/14 13:10:35;;;;;;;2.90;1.67;;;20.00;99.90;;;;;;5054119;28;20427;-77
2022/09/14 13:13:07;;;;;;;3.27;1.03;;;19.90;99.90;;;;;;5049345;28;20526;-78